createdAt,value
2019-05-13T00:00:04.003Z,48.95
2019-05-13T00:02:34.727Z,49.54
2019-05-13T00:05:03.998Z,48.74
2019-05-13T00:07:34.216Z,49.20
2019-05-13T00:10:04.540Z,49.39
2019-05-13T00:12:35.470Z,50.65
2019-05-13T00:15:04.726Z,52.05
2019-05-13T00:17:33.774Z,50.12
2019-05-13T00:20:04.621Z,50.12
2019-05-13T00:22:33.975Z,51.35
2019-05-13T00:25:04.169Z,51.17
2019-05-13T00:27:33.878Z,50.48
2019-05-13T00:30:04.264Z,51.50
2019-05-13T00:32:33.703Z,51.65
2019-05-13T00:35:03.967Z,51.32
2019-05-13T00:37:33.426Z,51.26
2019-05-13T00:40:04.012Z,52.15
2019-05-13T00:42:33.427Z,52.03
2019-05-13T00:45:04.076Z,53.36
2019-05-13T00:47:34.208Z,53.94
2019-05-13T00:50:03.784Z,53.98
2019-05-13T00:52:33.874Z,53.28
2019-05-13T00:55:04.719Z,53.20
2019-05-13T00:57:34.157Z,52.84
2019-05-13T01:00:03.761Z,53.02
2019-05-13T01:02:33.887Z,52.71
2019-05-13T01:05:04.334Z,52.40
2019-05-13T01:07:34.104Z,51.94
2019-05-13T01:10:04.211Z,52.37
2019-05-13T01:12:34.481Z,52.31
2019-05-13T01:15:05.575Z,51.72
2019-05-13T01:17:36.901Z,50.83
2019-05-13T01:20:07.894Z,51.42
2019-05-13T01:22:36.678Z,52.97
2019-05-13T01:25:05.072Z,54.87
2019-05-13T01:27:35.077Z,54.95
2019-05-13T01:30:04.481Z,54.32
2019-05-13T01:32:34.690Z,54.96
2019-05-13T01:35:04.596Z,54.59
2019-05-13T01:37:42.253Z,54.59
2019-05-13T01:40:05.225Z,56.35
2019-05-13T01:42:34.409Z,56.91
2019-05-13T01:45:04.669Z,57.03
2019-05-13T01:47:34.500Z,55.63
2019-05-13T01:50:04.215Z,57.29
2019-05-13T01:52:34.317Z,57.29
2019-05-13T01:55:04.153Z,57.72
2019-05-13T01:57:34.293Z,58.71
2019-05-13T02:00:05.935Z,59.06
2019-05-13T02:02:35.059Z,60.14
2019-05-13T02:05:04.110Z,59.28
2019-05-13T02:07:33.997Z,59.70
2019-05-13T02:10:04.252Z,60.89
2019-05-13T02:12:34.070Z,60.01
2019-05-13T02:15:04.466Z,60.27
2019-05-13T02:17:33.788Z,63.02
2019-05-13T02:20:04.155Z,63.02
2019-05-13T02:22:33.709Z,64.46
2019-05-13T02:25:04.378Z,63.81
2019-05-13T02:27:34.485Z,65.06
2019-05-13T02:30:05.579Z,65.06
2019-05-13T02:32:35.118Z,64.15
2019-05-13T02:35:04.604Z,63.85
2019-05-13T02:37:34.440Z,65.03
2019-05-13T02:40:04.251Z,64.63
2019-05-13T02:42:34.429Z,64.63
2019-05-13T02:45:04.002Z,65.43
2019-05-13T02:47:33.449Z,65.30
2019-05-13T02:50:05.077Z,63.88
2019-05-13T02:52:33.667Z,65.83
2019-05-13T02:55:04.036Z,65.76
2019-05-13T02:57:33.265Z,63.95
2019-05-13T03:00:04.190Z,64.30
2019-05-13T03:02:33.740Z,66.81
2019-05-13T03:05:03.202Z,67.16
2019-05-13T03:07:33.302Z,67.43
2019-05-13T03:10:04.087Z,67.50
2019-05-13T03:12:33.542Z,67.82
2019-05-13T03:15:03.128Z,67.82
2019-05-13T03:17:43.089Z,68.28
2019-05-13T03:20:15.749Z,69.68
2019-05-13T03:22:43.417Z,68.54
2019-05-13T03:25:13.239Z,68.49
2019-05-13T03:27:42.933Z,68.88
2019-05-13T03:30:16.547Z,68.72
2019-05-13T03:32:51.445Z,68.60
2019-05-13T03:35:16.661Z,69.55
2019-05-13T03:37:44.065Z,69.19
2019-05-13T03:40:13.641Z,68.92
2019-05-13T03:42:47.041Z,68.76
2019-05-13T03:45:16.044Z,67.82
2019-05-13T03:49:32.888Z,68.46
2019-05-13T03:52:03.163Z,70.09
2019-05-13T03:54:33.974Z,69.97
2019-05-13T03:57:03.846Z,69.36
2019-05-13T03:59:33.818Z,69.98
2019-05-13T04:02:03.922Z,69.73
2019-05-13T04:04:33.129Z,70.32
2019-05-13T04:07:03.099Z,69.88
2019-05-13T04:09:36.229Z,69.44
2019-05-13T04:12:03.753Z,69.53
2019-05-13T04:14:33.706Z,69.83
2019-05-13T04:17:03.529Z,69.32
2019-05-13T04:19:33.864Z,69.03
2019-05-13T04:22:04.100Z,68.67
2019-05-13T04:24:33.904Z,69.06
2019-05-13T04:27:03.345Z,69.73
2019-05-13T04:29:33.306Z,68.07
2019-05-13T04:32:03.030Z,68.13
2019-05-13T04:34:33.622Z,68.13
2019-05-13T04:37:03.738Z,67.28
2019-05-13T04:39:45.764Z,60.99
2019-05-13T04:42:03.869Z,49.92
2019-05-13T04:44:34.286Z,49.92
2019-05-13T04:47:04.207Z,47.21
2019-05-13T04:49:33.523Z,41.54
2019-05-13T04:52:03.596Z,40.53
2019-05-13T04:54:33.669Z,38.25
2019-05-13T04:57:03.452Z,35.76
2019-05-13T04:59:34.589Z,34.46
2019-05-13T05:03:05.725Z,33.38
2019-05-13T05:06:18.833Z,30.97
2019-05-13T05:10:30.388Z,29.10
2019-05-13T05:14:33.922Z,27.46
2019-05-13T05:18:04.032Z,25.27
2019-05-13T05:21:01.492Z,24.11
2019-05-13T05:24:41.384Z,22.30
2019-05-13T05:27:51.298Z,21.80
2019-05-13T05:32:02.485Z,19.78
2019-05-13T05:35:48.512Z,19.69
2019-05-13T05:39:08.737Z,18.68
2019-05-13T05:41:42.194Z,18.83
2019-05-13T05:44:13.554Z,17.97
2019-05-13T05:46:42.924Z,16.44
2019-05-13T05:49:12.971Z,17.70
2019-05-13T05:51:44.115Z,16.83
2019-05-13T05:54:16.031Z,17.34
2019-05-13T05:56:47.522Z,15.56
2019-05-13T05:59:21.551Z,16.83
2019-05-13T06:01:54.294Z,19.36
2019-05-13T06:04:26.572Z,20.83
2019-05-13T06:06:56.531Z,21.10
2019-05-13T06:09:26.760Z,21.22
2019-05-13T06:11:55.245Z,21.22
2019-05-13T06:14:25.711Z,21.78
2019-05-13T06:16:54.249Z,20.68
2019-05-13T06:19:23.383Z,18.23
2019-05-13T06:21:52.909Z,19.45
2019-05-13T06:24:26.209Z,19.92
2019-05-13T06:26:53.674Z,20.51
2019-05-13T06:29:22.342Z,18.87
2019-05-13T06:31:52.863Z,18.87
2019-05-13T06:34:21.942Z,18.78
2019-05-13T06:36:52.306Z,20.67
2019-05-13T06:39:22.229Z,23.56
2019-05-13T06:41:51.766Z,23.56
2019-05-13T06:44:21.511Z,23.65
2019-05-13T06:46:51.666Z,24.33
2019-05-13T06:49:21.802Z,21.23
2019-05-13T06:51:52.676Z,20.64
2019-05-13T06:54:22.082Z,22.27
2019-05-13T06:56:51.793Z,20.85
2019-05-13T06:59:23.829Z,21.35
2019-05-13T07:01:53.944Z,21.32
2019-05-13T07:04:24.211Z,20.42
2019-05-13T07:07:08.767Z,20.64
2019-05-13T07:09:26.174Z,17.20
2019-05-13T07:11:56.999Z,17.54
2019-05-13T07:14:26.592Z,18.36
2019-05-13T07:16:56.324Z,16.32
2019-05-13T07:19:26.015Z,16.32
2019-05-13T07:21:55.767Z,17.08
2019-05-13T07:24:25.253Z,15.16
2019-05-13T07:26:56.831Z,16.89
2019-05-13T07:29:26.728Z,16.39
2019-05-13T07:31:56.576Z,17.72
2019-05-13T07:34:26.444Z,17.87
2019-05-13T07:36:55.933Z,17.84
2019-05-13T07:39:25.902Z,17.52
2019-05-13T07:41:55.000Z,19.62
2019-05-13T07:44:24.610Z,20.31
2019-05-13T07:46:56.296Z,20.98
2019-05-13T07:49:26.573Z,20.98
2019-05-13T07:51:57.122Z,20.10
2019-05-13T07:54:27.135Z,20.10
2019-05-13T07:56:57.716Z,20.57
2019-05-13T07:59:26.664Z,17.65
2019-05-13T08:02:02.211Z,18.75
2019-05-13T08:04:33.385Z,18.75
2019-05-13T08:07:04.131Z,18.86
2019-05-13T08:09:35.284Z,18.70
2019-05-13T08:13:57.429Z,21.00
2019-05-13T08:16:27.142Z,20.10
2019-05-13T08:18:57.758Z,19.94
2019-05-13T08:21:28.617Z,19.33
2019-05-13T08:24:02.655Z,16.78
2019-05-13T08:26:37.929Z,16.41
2019-05-13T08:29:06.178Z,14.62
2019-05-13T08:31:36.871Z,15.18
2019-05-13T08:34:11.552Z,18.40
2019-05-13T08:36:42.589Z,17.00
2019-05-13T08:39:12.776Z,16.94
2019-05-13T08:41:43.101Z,18.47
2019-05-13T08:44:13.785Z,17.24
2019-05-13T08:46:43.800Z,17.06
2019-05-13T08:49:13.671Z,15.38
2019-05-13T08:51:43.204Z,13.87
2019-05-13T08:54:12.663Z,12.88
2019-05-13T08:56:42.377Z,13.50
2019-05-13T08:59:13.303Z,14.38
2019-05-13T09:01:42.978Z,12.68
2019-05-13T09:04:12.995Z,14.83
2019-05-13T09:06:48.619Z,15.59
2019-05-13T09:09:17.061Z,16.30
2019-05-13T09:11:46.988Z,17.23
2019-05-13T09:14:16.136Z,14.71
2019-05-13T09:16:45.352Z,13.22
2019-05-13T09:19:16.261Z,12.96
2019-05-13T09:21:46.016Z,15.14
2019-05-13T09:24:25.387Z,15.85
2019-05-13T09:26:46.601Z,15.85
2019-05-13T09:29:14.993Z,22.01
2019-05-13T09:31:44.597Z,22.01
2019-05-13T09:34:13.010Z,18.18
2019-05-13T09:36:42.313Z,18.18
2019-05-13T09:39:12.677Z,20.64
2019-05-13T09:41:44.459Z,18.70
2019-05-13T09:44:13.014Z,17.73
2019-05-13T09:46:42.588Z,16.18
2019-05-13T09:49:19.413Z,16.99
2019-05-13T09:51:43.568Z,18.28
2019-05-13T09:54:13.411Z,20.79
2019-05-13T09:56:43.027Z,22.07
2019-05-13T09:59:13.315Z,20.45
2019-05-13T10:01:44.476Z,17.81
2019-05-13T10:04:15.108Z,19.62
2019-05-13T10:06:44.535Z,19.97
2019-05-13T10:09:15.317Z,21.12
2019-05-13T10:11:44.447Z,21.52
2019-05-13T10:14:14.123Z,19.87
2019-05-13T10:16:43.651Z,18.83
2019-05-13T10:19:12.860Z,18.55
2019-05-13T10:21:43.056Z,18.55
2019-05-13T10:24:13.554Z,22.07
2019-05-13T10:26:43.275Z,21.95
2019-05-13T10:29:12.636Z,21.95
2019-05-13T10:31:42.179Z,17.83
2019-05-13T10:34:14.111Z,17.83
2019-05-13T10:36:43.744Z,16.40
2019-05-13T10:39:13.384Z,17.11
2019-05-13T10:41:42.733Z,18.30
2019-05-13T10:44:13.082Z,18.03
2019-05-13T10:46:42.830Z,16.11
2019-05-13T10:49:12.466Z,15.62
2019-05-13T10:51:41.785Z,15.62
2019-05-13T10:54:11.632Z,13.73
2019-05-13T10:56:43.039Z,12.36
2019-05-13T10:59:12.678Z,12.87
2019-05-13T11:01:42.821Z,14.04
2019-05-13T11:04:14.035Z,17.67
2019-05-13T11:06:43.288Z,22.55
2019-05-13T11:09:13.249Z,22.42
2019-05-13T11:11:42.411Z,24.84
2019-05-13T11:14:15.554Z,24.01
2019-05-13T11:16:42.765Z,23.61
2019-05-13T11:19:12.172Z,24.74
2019-05-13T11:21:43.427Z,23.60
2019-05-13T11:24:12.883Z,19.26
2019-05-13T11:26:46.417Z,17.18
2019-05-13T11:29:15.405Z,16.82
2019-05-13T11:31:44.515Z,17.85
2019-05-13T11:34:13.701Z,14.79
2019-05-13T11:36:43.570Z,15.69
2019-05-13T11:39:13.032Z,15.17
2019-05-13T11:41:42.840Z,15.54
2019-05-13T11:44:16.668Z,13.79
2019-05-13T11:46:43.428Z,11.92
2019-05-13T11:49:12.735Z,15.29
2019-05-13T11:51:42.807Z,18.09
2019-05-13T11:54:13.971Z,19.60
2019-05-13T11:56:49.249Z,16.62
2019-05-13T11:59:14.411Z,15.83
2019-05-13T12:01:43.652Z,15.55
2019-05-13T12:04:11.903Z,16.13
2019-05-13T12:06:48.543Z,16.03
2019-05-13T12:09:13.293Z,16.50
2019-05-13T12:11:42.594Z,15.04
2019-05-13T12:15:14.937Z,15.17
2019-05-13T12:17:14.400Z,14.88
2019-05-13T12:19:56.278Z,16.30
2019-05-13T12:22:26.443Z,16.30
2019-05-13T12:24:56.334Z,17.46
2019-05-13T12:27:25.941Z,17.74
2019-05-13T12:29:55.115Z,16.74
2019-05-13T12:32:24.106Z,15.79
2019-05-13T12:34:53.317Z,13.97
2019-05-13T12:37:22.544Z,12.46
2019-05-13T12:39:53.144Z,14.66
2019-05-13T12:42:22.955Z,17.41
2019-05-13T12:45:05.405Z,17.41
2019-05-13T12:47:22.951Z,18.27
2019-05-13T12:49:53.774Z,18.95
2019-05-13T12:52:23.100Z,20.13
2019-05-13T12:54:53.107Z,17.21
2019-05-13T12:57:23.457Z,16.73
2019-05-13T12:59:52.587Z,16.92
2019-05-13T13:02:22.655Z,16.38
2019-05-13T13:05:08.846Z,16.38
2019-05-13T13:07:23.055Z,17.55
2019-05-13T13:09:53.852Z,18.29
2019-05-13T13:12:33.424Z,18.75
2019-05-13T13:14:54.911Z,18.29
2019-05-13T13:17:24.414Z,15.86
2019-05-13T13:19:56.829Z,16.37
2019-05-13T13:22:26.470Z,16.92
2019-05-13T13:24:57.347Z,18.24
2019-05-13T13:27:58.899Z,17.15
2019-05-13T13:30:03.237Z,18.50
2019-05-13T13:32:32.213Z,18.16
2019-05-13T13:35:03.458Z,19.83
2019-05-13T13:37:34.836Z,19.83
2019-05-13T13:42:59.119Z,18.99
2019-05-13T13:45:37.441Z,19.02
2019-05-13T13:48:03.836Z,18.93
2019-05-13T13:50:33.722Z,19.68
2019-05-13T13:53:03.100Z,19.64
2019-05-13T13:55:32.376Z,19.67
2019-05-13T13:58:02.459Z,18.14
2019-05-13T14:00:40.976Z,17.81
2019-05-13T14:03:06.595Z,17.81
2019-05-13T14:05:36.217Z,19.06
2019-05-13T14:08:04.559Z,19.07
2019-05-13T14:10:33.572Z,19.07
2019-05-13T14:13:04.904Z,20.32
2019-05-13T14:15:34.390Z,20.32
2019-05-13T14:18:03.728Z,20.56
2019-05-13T14:20:32.830Z,20.94
2019-05-13T14:23:02.814Z,19.29
2019-05-13T14:25:32.601Z,19.26
2019-05-13T14:28:01.750Z,18.32
2019-05-13T14:30:34.377Z,18.32
2019-05-13T14:33:03.410Z,19.34
2019-05-13T14:35:32.539Z,20.05
2019-05-13T14:38:02.588Z,19.96
2019-05-13T14:40:31.943Z,21.77
2019-05-13T14:43:03.695Z,21.40
2019-05-13T14:45:32.003Z,20.79
2019-05-13T14:48:01.661Z,18.85
2019-05-13T14:50:31.901Z,19.69
2019-05-13T14:53:01.685Z,19.09
2019-05-13T14:58:21.752Z,21.06
2019-05-13T15:01:10.458Z,21.78
2019-05-13T15:03:21.735Z,22.16
2019-05-13T15:07:21.621Z,20.79
2019-05-13T15:09:51.471Z,20.38
2019-05-13T15:12:21.655Z,19.76
2019-05-13T15:14:52.338Z,19.94
2019-05-13T15:17:21.878Z,21.83
2019-05-13T15:19:52.491Z,21.83
2019-05-13T15:22:22.702Z,21.30
2019-05-13T15:24:52.041Z,21.59
2019-05-13T15:27:22.298Z,21.08
2019-05-13T15:29:51.773Z,20.66
2019-05-13T15:32:21.789Z,20.06
2019-05-13T15:34:51.887Z,18.70
2019-05-13T15:37:21.576Z,18.47
2019-05-13T15:39:51.831Z,19.52
2019-05-13T15:42:21.374Z,19.46
2019-05-13T15:44:52.565Z,18.91
2019-05-13T15:47:24.094Z,19.60
2019-05-13T15:49:53.428Z,19.60
2019-05-13T15:52:22.774Z,20.36
2019-05-13T15:54:52.433Z,20.78
2019-05-13T15:57:21.517Z,21.25
2019-05-13T15:59:51.775Z,20.84
2019-05-13T16:02:22.646Z,20.92
2019-05-13T16:05:00.252Z,20.47
2019-05-13T16:07:23.169Z,19.65
2019-05-13T16:09:52.743Z,19.87
2019-05-13T16:12:22.080Z,20.46
2019-05-13T16:14:51.483Z,20.49
2019-05-13T16:17:36.576Z,19.93
2019-05-13T16:19:53.671Z,19.86
2019-05-13T16:22:23.179Z,21.04
2019-05-13T16:24:52.531Z,20.90
2019-05-13T16:27:22.366Z,23.53
2019-05-13T16:29:51.780Z,23.80
2019-05-13T16:32:22.733Z,23.80
2019-05-13T16:34:52.201Z,23.59
2019-05-13T16:37:21.949Z,22.87
2019-05-13T16:39:53.942Z,22.72
2019-05-13T16:42:23.073Z,23.17
2019-05-13T16:44:52.025Z,22.31
2019-05-13T16:47:21.345Z,21.68
2019-05-13T16:49:50.560Z,22.21
2019-05-13T16:52:21.915Z,22.50
2019-05-13T16:54:53.170Z,23.26
2019-05-13T16:57:21.515Z,23.93
2019-05-13T16:59:51.697Z,23.51
2019-05-13T17:02:21.109Z,24.05
2019-05-13T17:04:52.043Z,23.83
2019-05-13T17:07:21.338Z,23.26
2019-05-13T17:09:52.104Z,23.37
2019-05-13T17:12:21.463Z,22.65
2019-05-13T17:14:52.312Z,21.46
2019-05-13T17:17:21.577Z,21.46
2019-05-13T17:19:53.800Z,24.26
2019-05-13T17:22:22.046Z,24.26
2019-05-13T17:24:51.890Z,24.14
2019-05-13T17:30:46.757Z,23.85
2019-05-13T17:33:16.581Z,23.62
2019-05-13T17:35:45.560Z,24.95
2019-05-13T17:38:14.463Z,25.78
2019-05-13T17:40:49.617Z,25.82
2019-05-13T17:43:15.903Z,25.90
2019-05-13T17:45:45.183Z,25.44
2019-05-13T17:48:25.723Z,25.50
2019-05-13T17:50:45.749Z,25.80
2019-05-13T17:53:25.047Z,25.80
2019-05-13T17:55:56.234Z,26.20
2019-05-13T17:58:32.575Z,26.00
2019-05-13T18:01:58.354Z,25.61
2019-05-13T18:04:41.526Z,25.26
2019-05-13T18:07:26.055Z,25.54
2019-05-13T18:10:01.330Z,25.54
2019-05-13T18:12:30.855Z,25.67
2019-05-13T18:15:02.473Z,25.87
2019-05-13T18:17:31.948Z,25.50
2019-05-13T18:20:02.530Z,25.50
2019-05-13T18:22:31.778Z,26.15
2019-05-13T18:25:02.671Z,25.90
2019-05-13T18:27:32.431Z,26.31
2019-05-13T18:30:02.525Z,26.62
2019-05-13T18:32:32.133Z,26.28
2019-05-13T18:35:02.026Z,26.28
2019-05-13T18:37:31.818Z,26.37
2019-05-13T18:40:02.490Z,26.65
2019-05-13T18:42:32.460Z,26.97
2019-05-13T18:45:03.451Z,26.14
2019-05-13T18:47:40.456Z,25.86
2019-05-13T18:50:11.542Z,26.26
2019-05-13T18:52:42.035Z,25.67
2019-05-13T18:55:12.578Z,26.53
2019-05-13T18:57:42.031Z,26.82
2019-05-13T19:00:11.779Z,26.59
2019-05-13T19:02:41.515Z,26.58
2019-05-13T19:05:12.238Z,27.43
2019-05-13T19:07:41.948Z,27.18
2019-05-13T19:10:12.782Z,27.37
2019-05-13T19:12:42.365Z,27.61
2019-05-13T19:15:11.652Z,28.03
2019-05-13T19:17:41.600Z,27.97
2019-05-13T19:20:11.837Z,27.51
2019-05-13T19:22:41.406Z,27.97
2019-05-13T19:25:12.191Z,29.25
2019-05-13T19:27:43.906Z,29.27
2019-05-13T19:30:13.159Z,29.76
2019-05-13T19:32:42.508Z,29.76
2019-05-13T19:35:12.031Z,31.11
2019-05-13T19:37:42.460Z,31.11
2019-05-13T19:40:12.989Z,32.14
2019-05-13T19:42:42.475Z,31.81
2019-05-13T19:45:11.808Z,30.71
2019-05-13T19:47:41.784Z,30.71
2019-05-13T19:50:11.985Z,31.45
2019-05-13T19:52:41.571Z,30.64
2019-05-13T19:55:12.044Z,31.56
2019-05-13T19:57:42.526Z,31.08
2019-05-13T20:00:14.128Z,30.36
2019-05-13T20:02:43.416Z,31.12
2019-05-13T20:05:13.020Z,31.26
2019-05-13T20:07:42.172Z,31.47
2019-05-13T20:10:11.960Z,31.66
2019-05-13T20:12:41.985Z,32.40
2019-05-13T20:15:15.032Z,31.81
2019-05-13T20:17:44.306Z,32.15
2019-05-13T20:20:14.522Z,31.56
2019-05-13T20:22:43.862Z,31.66
2019-05-13T20:25:13.332Z,31.27
2019-05-13T20:27:42.865Z,31.60
2019-05-13T20:30:12.723Z,31.76
2019-05-13T20:32:42.159Z,32.10
2019-05-13T20:35:11.820Z,31.89
2019-05-13T20:37:42.174Z,32.08
2019-05-13T20:40:11.704Z,31.38
2019-05-13T20:42:42.260Z,31.76
2019-05-13T20:45:12.337Z,31.84
2019-05-13T20:47:42.179Z,31.76
2019-05-13T20:50:12.615Z,31.65
2019-05-13T20:52:42.104Z,31.06
2019-05-13T20:55:12.480Z,31.20
2019-05-13T20:57:55.412Z,31.20
2019-05-13T21:00:25.038Z,29.86
2019-05-13T21:03:04.288Z,30.11
2019-05-13T21:05:33.996Z,30.04
2019-05-13T21:08:05.699Z,30.53
2019-05-13T21:10:34.976Z,30.18
2019-05-13T21:13:04.169Z,29.92
2019-05-13T21:15:33.778Z,30.15
2019-05-13T21:18:05.326Z,30.47
2019-05-13T21:21:04.086Z,30.08
2019-05-13T21:23:34.476Z,29.92
2019-05-13T21:26:04.132Z,30.29
2019-05-13T21:28:33.914Z,30.02
2019-05-13T21:31:03.916Z,30.33
2019-05-13T21:33:33.486Z,29.88
2019-05-13T21:36:03.206Z,29.67
2019-05-13T21:38:32.985Z,29.67
2019-05-13T21:41:02.937Z,29.83
2019-05-13T21:43:33.071Z,30.24
2019-05-13T21:46:04.142Z,29.64
2019-05-13T21:48:33.883Z,30.33
2019-05-13T21:51:03.786Z,30.31
2019-05-13T21:53:34.290Z,30.66
2019-05-13T21:56:04.136Z,30.52
2019-05-13T21:58:33.751Z,31.21
2019-05-13T22:01:03.471Z,31.37
2019-05-13T22:03:33.692Z,30.80
2019-05-13T22:06:03.507Z,30.80
2019-05-13T22:08:33.140Z,30.99
2019-05-13T22:11:02.856Z,30.99
2019-05-13T22:13:32.892Z,31.43
2019-05-13T22:16:02.530Z,31.48
2019-05-13T22:18:32.082Z,31.50
2019-05-13T22:21:02.058Z,31.84
2019-05-13T22:23:33.033Z,31.59
2019-05-13T22:26:02.954Z,31.76
2019-05-13T22:28:33.585Z,31.76
2019-05-13T22:31:02.620Z,32.21
2019-05-13T22:33:32.647Z,32.30
2019-05-13T22:36:02.304Z,32.78
2019-05-13T22:38:32.666Z,32.84
2019-05-13T22:41:04.755Z,32.96
2019-05-13T22:43:34.459Z,32.39
2019-05-13T22:46:05.556Z,32.34
2019-05-13T22:48:34.729Z,33.47
2019-05-13T22:51:04.736Z,33.47
2019-05-13T22:53:33.570Z,33.91
2019-05-13T22:56:03.942Z,34.50
2019-05-13T22:58:33.713Z,34.50
2019-05-13T23:01:03.615Z,34.40
2019-05-13T23:03:33.593Z,35.78
2019-05-13T23:06:02.618Z,35.79
2019-05-13T23:08:32.594Z,35.86
2019-05-13T23:11:02.502Z,35.86
2019-05-13T23:13:31.893Z,37.78
2019-05-13T23:16:02.418Z,39.98
2019-05-13T23:18:31.915Z,40.47
2019-05-13T23:21:02.327Z,41.17
2019-05-13T23:23:32.423Z,42.44
2019-05-13T23:26:01.923Z,42.44
2019-05-13T23:28:32.264Z,43.06
2019-05-13T23:31:02.403Z,43.82
2019-05-13T23:33:32.005Z,43.18
2019-05-13T23:40:07.697Z,43.88
2019-05-13T23:42:36.008Z,44.46
2019-05-13T23:45:06.018Z,44.46
2019-05-13T23:47:35.451Z,44.38
2019-05-13T23:50:05.086Z,45.14
2019-05-13T23:52:34.581Z,45.89
2019-05-13T23:55:06.014Z,46.79
2019-05-13T23:57:35.406Z,46.79
